Time;durP1;ratioP1;P1;durP2;ratioP2;P2;SDS_P1;SDS_P2;PMS_P1;PMS_P2;Temp;Humidity;BMP_temperature;BMP_pressure;BME280_temperature;BME280_humidity;BME280_pressure;Samples;Min_cycle;Max_cycle;Signal;HPM_P1;HPM_P2
2023/06/20 05:12:22;;;;;;;;;;;;;;;;;;5080273;28;19935;-48
2023/06/20 05:14:48;;;;;;;;;;;;;;;;;;5088532;28;19916;-49
2023/06/20 05:17:14;;;;;;;;;;;;;;;;;;5088886;28;19914;-51
2023/06/20 05:19:41;;;;;;;;;;;;;;;;;;5088544;28;19912;-49
2023/06/20 05:22:06;;;;;;;;;;;;;;;;;;5088092;28;19920;-48
2023/06/20 05:24:33;;;;;;;;;;;;;;;;;;5088177;28;19908;-47
2023/06/20 05:26:59;;;;;;;;;;;;;;;;;;5088584;28;20471;-48
2023/06/20 05:29:25;;;;;;;;;;;;;;;;;;5088093;28;19916;-50
2023/06/20 05:31:51;;;;;;;;;;;;;;;;;;5086795;28;19920;-50
2023/06/20 05:34:17;;;;;;;;;;;;;;;;;;5088034;28;19916;-50
2023/06/20 05:36:43;;;;;;;;;;;;;;;;;;5087796;28;19998;-49
2023/06/20 05:39:09;;;;;;;;;;;;;;;;;;5085334;28;19920;-47
2023/06/20 05:41:35;;;;;;;;;;;;;;;;;;5085548;28;19951;-46
2023/06/20 05:44:01;;;;;;;;;;;;;;;;;;5087362;28;19919;-47
2023/06/20 05:46:27;;;;;;;;;;;;;;;;;;5087728;28;19939;-49
2023/06/20 05:48:53;;;;;;;;;;;;;;;;;;5076048;28;19916;-48
2023/06/20 05:51:19;;;;;;;;;;;;;;;;;;5088389;28;19923;-46
2023/06/20 05:53:45;;;;;;;;;;;;;;;;;;5086314;28;19923;-48
2023/06/20 05:56:13;;;;;;;;;;;;;;;;;;5088640;28;19990;-47
2023/06/20 05:58:41;;;;;;;;;;;;;;;;;;5082209;28;19920;-47
2023/06/20 06:01:07;;;;;;;;;;;;;;;;;;5088319;28;19916;-47
2023/06/20 06:03:33;;;;;;;;;;;;;;;;;;5088376;28;19983;-49
2023/06/20 06:06:00;;;;;;;;;;;;;;;;;;5092403;28;19912;-48
2023/06/20 06:08:26;;;;;;;;;;;;;;;;;;5091331;28;19927;-49
2023/06/20 06:10:52;;;;;;;;;;;;;;;;;;5090958;28;19920;-48
2023/06/20 06:13:18;;;;;;;;;;;;;;;;;;5090755;28;19942;-49
2023/06/20 06:15:44;;;;;;;;;;;;;;;;;;5092241;28;19965;-49
2023/06/20 06:18:10;;;;;;;;;;;;;;;;;;5092752;28;19995;-51
2023/06/20 06:20:36;;;;;;;;;;;;;;;;;;5091376;28;19931;-50
2023/06/20 06:23:02;;;;;;;;;;;;;;;;;;5091716;28;20006;-50
2023/06/20 06:25:28;;;;;;;;;;;;;;;;;;5091650;28;19912;-49
2023/06/20 06:27:54;;;;;;;;;;;;;;;;;;5091278;28;20389;-48
2023/06/20 06:30:20;;;;;;;;;;;;;;;;;;5092161;28;19908;-46
2023/06/20 06:32:49;;;;;;;;;;;;;;;;;;5092890;28;20051;-47
2023/06/20 06:35:15;;;;;;;;;;;;;;;;;;5091722;28;19908;-47
2023/06/20 06:37:41;;;;;;;;;;;;;;;;;;5090205;28;19919;-49
2023/06/20 06:40:07;;;;;;;;;;;;;;;;;;5091533;28;19917;-48
2023/06/20 06:42:33;;;;;;;;;;;;;;;;;;5090366;28;20334;-48
2023/06/20 06:44:59;;;;;;;;;;;;;;;;;;5092229;28;19919;-51
2023/06/20 06:47:25;;;;;;;;;;;;;;;;;;5089337;28;19912;-50
2023/06/20 06:49:50;;;;;;;;;;;;;;;;;;5091163;28;19913;-48
2023/06/20 06:52:16;;;;;;;;;;;;;;;;;;5089573;28;19919;-50
2023/06/20 06:54:43;;;;;;;;;;;;;;;;;;5091158;28;19943;-47
2023/06/20 06:57:09;;;;;;;;;;;;;;;;;;5092108;28;19969;-47
2023/06/20 06:59:35;;;;;;;;;;;;;;;;;;5089814;28;19973;-46
2023/06/20 07:02:01;;;;;;;;;;;;;;;;;;5090412;28;20389;-49
2023/06/20 07:04:27;;;;;;;;;;;;;;;;;;5090814;28;19970;-47
2023/06/20 07:06:53;;;;;;;;;;;;;;;;;;5092020;28;19932;-46
2023/06/20 07:09:19;;;;;;;;;;;;;;;;;;5090785;28;19995;-48
2023/06/20 07:11:45;;;;;;;;;;;;;;;;;;5091801;28;19920;-47
2023/06/20 07:14:11;;;;;;;;;;;;;;;;;;5089773;28;19916;-49
2023/06/20 07:16:37;;;;;;;;;;;;;;;;;;5087457;28;19934;-49
2023/06/20 07:19:03;;;;;;;;;;;;;;;;;;5090527;28;19920;-48
2023/06/20 07:21:29;;;;;;;;;;;;;;;;;;5091659;28;19912;-48
2023/06/20 07:23:55;;;;;;;;;;;;;;;;;;5091579;28;19911;-51
2023/06/20 07:26:21;;;;;;;;;;;;;;;;;;5089829;28;19912;-50
2023/06/20 07:28:47;;;;;;;;;;;;;;;;;;5089491;28;19958;-49
2023/06/20 07:31:13;;;;;;;;;;;;;;;;;;5080030;28;20432;-50
2023/06/20 07:33:39;;;;;;;;;;;;;;;;;;5091319;28;20326;-49
2023/06/20 07:36:04;;;;;;;;;;;;;;;;;;5091403;28;19930;-47
2023/06/20 07:38:30;;;;;;;;;;;;;;;;;;5082262;28;19912;-47
2023/06/20 07:40:57;;;;;;;;;;;;;;;;;;5091160;28;19908;-50
2023/06/20 07:43:24;;;;;;;;;;;;;;;;;;5090135;28;19922;-51
2023/06/20 07:45:50;;;;;;;;;;;;;;;;;;5091126;28;19908;-47
2023/06/20 07:48:16;;;;;;;;;;;;;;;;;;5089952;28;19919;-49
2023/06/20 07:50:42;;;;;;;;;;;;;;;;;;5089889;28;19950;-47
2023/06/20 07:53:08;;;;;;;;;;;;;;;;;;5090051;28;19920;-51
2023/06/20 07:55:34;;;;;;;;;;;;;;;;;;5075171;28;19952;-49
2023/06/20 07:58:00;;;;;;;;;;;;;;;;;;5070573;28;19932;-47
2023/06/20 08:00:26;;;;;;;;;;;;;;;;;;5081150;28;20012;-47
2023/06/20 08:02:52;;;;;;;;;;;;;;;;;;5084229;28;19955;-47
2023/06/20 08:05:18;;;;;;;;;;;;;;;;;;5084139;28;20633;-46
2023/06/20 08:07:44;;;;;;;;;;;;;;;;;;5083894;28;20006;-49
2023/06/20 08:10:10;;;;;;;;;;;;;;;;;;5088800;28;19912;-47
2023/06/20 08:12:36;;;;;;;;;;;;;;;;;;5088050;28;20065;-47
2023/06/20 08:15:02;;;;;;;;;;;;;;;;;;5089432;28;19999;-48
2023/06/20 08:17:28;;;;;;;;;;;;;;;;;;5086950;28;19922;-48
2023/06/20 08:19:54;;;;;;;;;;;;;;;;;;5088438;28;20373;-46
2023/06/20 08:22:19;;;;;;;;;;;;;;;;;;5085089;28;19923;-51
2023/06/20 08:24:47;;;;;;;;;;;;;;;;;;5088907;28;20212;-46
2023/06/20 08:27:13;;;;;;;;;;;;;;;;;;5088449;28;20347;-51
2023/06/20 08:29:39;;;;;;;;;;;;;;;;;;5087581;28;19916;-52
2023/06/20 08:32:05;;;;;;;;;;;;;;;;;;5088025;28;20382;-50
2023/06/20 08:34:31;;;;;;;;;;;;;;;;;;5079839;28;19913;-51
2023/06/20 08:36:57;;;;;;;;;;;;;;;;;;5083848;28;19989;-49
2023/06/20 08:39:23;;;;;;;;;;;;;;;;;;5090137;28;19916;-48
2023/06/20 08:41:49;;;;;;;;;;;;;;;;;;5089398;28;19994;-48
2023/06/20 08:44:15;;;;;;;;;;;;;;;;;;5089889;28;19957;-48
2023/06/20 08:46:41;;;;;;;;;;;;;;;;;;5089576;28;20453;-46
2023/06/20 08:49:08;;;;;;;;;;;;;;;;;;5089147;28;19912;-52
2023/06/20 08:51:34;;;;;;;;;;;;;;;;;;5089383;28;19974;-48
2023/06/20 08:54:01;;;;;;;;;;;;;;;;;;5089058;28;19912;-48
2023/06/20 08:56:27;;;;;;;;;;;;;;;;;;5088936;28;19919;-50
2023/06/20 08:58:53;;;;;;;;;;;;;;;;;;5088545;28;19916;-47
2023/06/20 09:01:19;;;;;;;;;;;;;;;;;;5085522;28;19956;-50
2023/06/20 09:03:45;;;;;;;;;;;;;;;;;;5087052;28;19974;-51
2023/06/20 09:06:11;;;;;;;;;;;;;;;;;;5088835;28;19912;-47
2023/06/20 09:08:37;;;;;;;;;;;;;;;;;;5089203;28;19970;-52
2023/06/20 09:11:03;;;;;;;;;;;;;;;;;;5086573;28;20388;-50
2023/06/20 09:13:29;;;;;;;;;;;;;;;;;;5088894;28;19924;-51
2023/06/20 09:15:55;;;;;;;;;;;;;;;;;;5088742;28;19961;-52
2023/06/20 09:18:21;;;;;;;;;;;;;;;;;;5089013;28;20449;-51
2023/06/20 09:20:46;;;;;;;;;;;;;;;;;;5087534;28;19912;-50
2023/06/20 09:23:12;;;;;;;;;;;;;;;;;;5088455;28;19980;-49
2023/06/20 09:25:40;;;;;;;;;;;;;;;;;;5087702;28;19920;-48
2023/06/20 09:28:06;;;;;;;;;;;;;;;;;;5088947;28;19913;-51
2023/06/20 09:30:32;;;;;;;;;;;;;;;;;;5088773;28;20351;-49
2023/06/20 09:32:58;;;;;;;;;;;;;;;;;;5089524;28;20421;-49
2023/06/20 09:35:24;;;;;;;;;;;;;;;;;;5088766;28;19916;-49
2023/06/20 09:37:50;;;;;;;;;;;;;;;;;;5088653;28;20027;-48
2023/06/20 09:40:16;;;;;;;;;;;;;;;;;;5091627;28;19947;-48
2023/06/20 09:42:42;;;;;;;;;;;;;;;;;;5079285;28;20278;-47
2023/06/20 09:45:07;;;;;;;;;;;;;;;;;;5088012;28;19919;-48
2023/06/20 09:47:33;;;;;;;;;;;;;;;;;;5093440;28;19912;-47
2023/06/20 09:49:59;;;;;;;;;;;;;;;;;;5093360;28;20016;-47
2023/06/20 09:52:25;;;;;;;;;;;;;;;;;;5093183;28;19959;-47
2023/06/20 09:54:51;;;;;;;;;;;;;;;;;;5090618;28;19959;-47
2023/06/20 09:57:17;;;;;;;;;;;;;;;;;;5093023;28;19912;-49
2023/06/20 09:59:43;;;;;;;;;;;;;;;;;;5092966;28;19912;-48
2023/06/20 10:02:10;;;;;;;;;;;;;;;;;;5090842;28;20351;-47
2023/06/20 10:04:39;;;;;;;;;;;;;;;;;;5092675;28;19935;-48
2023/06/20 10:07:05;;;;;;;;;;;;;;;;;;5092206;28;19944;-46
2023/06/20 10:09:31;;;;;;;;;;;;;;;;;;5092404;28;19947;-48
2023/06/20 10:11:57;;;;;;;;;;;;;;;;;;5086208;28;19916;-50
2023/06/20 10:14:23;;;;;;;;;;;;;;;;;;5089864;28;20312;-50
2023/06/20 10:16:49;;;;;;;;;;;;;;;;;;5091501;28;20034;-49
2023/06/20 10:19:16;;;;;;;;;;;;;;;;;;5090325;28;19919;-50
2023/06/20 10:21:43;;;;;;;;;;;;;;;;;;5091778;28;19909;-47
2023/06/20 10:24:09;;;;;;;;;;;;;;;;;;5090108;28;19920;-50
2023/06/20 10:26:35;;;;;;;;;;;;;;;;;;5091785;28;19912;-49
2023/06/20 10:29:01;;;;;;;;;;;;;;;;;;5090414;28;19935;-49
2023/06/20 10:31:27;;;;;;;;;;;;;;;;;;5088436;28;19999;-48
2023/06/20 10:33:53;;;;;;;;;;;;;;;;;;5089262;28;19920;-50
2023/06/20 10:36:18;;;;;;;;;;;;;;;;;;5090367;28;19932;-49
2023/06/20 10:38:47;;;;;;;;;;;;;;;;;;5091050;28;19968;-48
2023/06/20 10:41:13;;;;;;;;;;;;;;;;;;5089867;28;19932;-48
2023/06/20 10:43:39;;;;;;;;;;;;;;;;;;5089285;28;19923;-49
2023/06/20 10:46:05;;;;;;;;;;;;;;;;;;5090651;28;20371;-49
2023/06/20 10:48:30;;;;;;;;;;;;;;;;;;5088660;28;19912;-47
2023/06/20 10:50:56;;;;;;;;;;;;;;;;;;5089295;28;20376;-47
2023/06/20 10:53:22;;;;;;;;;;;;;;;;;;5089670;28;19916;-51
2023/06/20 10:55:48;;;;;;;;;;;;;;;;;;5090858;28;19915;-50
2023/06/20 10:58:14;;;;;;;;;;;;;;;;;;5089532;28;19916;-47
2023/06/20 11:00:40;;;;;;;;;;;;;;;;;;5089105;28;19920;-48
2023/06/20 11:03:06;;;;;;;;;;;;;;;;;;5086575;28;19912;-47
2023/06/20 11:05:32;;;;;;;;;;;;;;;;;;5087345;28;19912;-49
2023/06/20 11:07:58;;;;;;;;;;;;;;;;;;5089793;28;19954;-51
2023/06/20 11:10:24;;;;;;;;;;;;;;;;;;5088302;28;19959;-51
2023/06/20 11:12:50;;;;;;;;;;;;;;;;;;5090479;28;20336;-49
2023/06/20 11:15:16;;;;;;;;;;;;;;;;;;5089853;28;19941;-51
2023/06/20 11:17:42;;;;;;;;;;;;;;;;;;5090679;28;19976;-48
2023/06/20 11:20:08;;;;;;;;;;;;;;;;;;5090508;28;19915;-50
2023/06/20 11:22:34;;;;;;;;;;;;;;;;;;5089758;28;19912;-48
2023/06/20 11:25:01;;;;;;;;;;;;;;;;;;5088594;28;19939;-49
2023/06/20 11:27:27;;;;;;;;;;;;;;;;;;5091222;28;19919;-48
2023/06/20 11:29:52;;;;;;;;;;;;;;;;;;5090545;28;19912;-47
2023/06/20 11:32:18;;;;;;;;;;;;;;;;;;5090605;28;19952;-47
2023/06/20 11:34:44;;;;;;;;;;;;;;;;;;5086294;28;20125;-48
2023/06/20 11:37:11;;;;;;;;;;;;;;;;;;5089464;28;19916;-51
2023/06/20 11:39:36;;;;;;;;;;;;;;;;;;5090066;28;19931;-48
2023/06/20 11:42:03;;;;;;;;;;;;;;;;;;5089437;28;20377;-48
2023/06/20 11:44:29;;;;;;;;;;;;;;;;;;5087984;28;19962;-50
2023/06/20 11:46:55;;;;;;;;;;;;;;;;;;5087123;28;19916;-49
2023/06/20 11:49:21;;;;;;;;;;;;;;;;;;5088761;28;19994;-51
2023/06/20 11:51:47;;;;;;;;;;;;;;;;;;5089231;28;19912;-50
2023/06/20 11:54:13;;;;;;;;;;;;;;;;;;5089063;28;20007;-50
2023/06/20 11:56:39;;;;;;;;;;;;;;;;;;5086785;28;19912;-50
2023/06/20 11:59:05;;;;;;;;;;;;;;;;;;5086860;28;19920;-48
2023/06/20 12:01:32;;;;;;;;;;;;;;;;;;5086183;28;20372;-48
2023/06/20 12:03:58;;;;;;;;;;;;;;;;;;5077597;28;19909;-49
2023/06/20 12:06:24;;;;;;;;;;;;;;;;;;5067547;28;19954;-46
2023/06/20 12:08:51;;;;;;;;;;;;;;;;;;5066899;28;19918;-48
2023/06/20 12:11:18;;;;;;;;;;;;;;;;;;5066913;28;19912;-48
2023/06/20 12:13:44;;;;;;;;;;;;;;;;;;5079088;28;19916;-46
2023/06/20 12:16:10;;;;;;;;;;;;;;;;;;5086576;28;20006;-46
2023/06/20 12:18:36;;;;;;;;;;;;;;;;;;5088544;28;20019;-48
2023/06/20 12:21:02;;;;;;;;;;;;;;;;;;5087517;28;19998;-50
2023/06/20 12:23:28;;;;;;;;;;;;;;;;;;5087781;28;19923;-51
2023/06/20 12:25:54;;;;;;;;;;;;;;;;;;5089112;28;19916;-50
2023/06/20 12:28:20;;;;;;;;;;;;;;;;;;5089609;28;19912;-48
2023/06/20 12:30:46;;;;;;;;;;;;;;;;;;5089745;28;19958;-52
2023/06/20 12:33:12;;;;;;;;;;;;;;;;;;5089075;28;19973;-49
2023/06/20 12:35:38;;;;;;;;;;;;;;;;;;5089500;28;20589;-48
2023/06/20 12:38:04;;;;;;;;;;;;;;;;;;5088997;28;19958;-47
2023/06/20 12:40:30;;;;;;;;;;;;;;;;;;5086687;28;20347;-50
2023/06/20 12:42:56;;;;;;;;;;;;;;;;;;5087387;28;19912;-48
2023/06/20 12:45:22;;;;;;;;;;;;;;;;;;5087726;28;19919;-52
2023/06/20 12:47:48;;;;;;;;;;;;;;;;;;5087807;28;20308;-48
2023/06/20 12:50:14;;;;;;;;;;;;;;;;;;5087623;28;20220;-51
2023/06/20 12:52:40;;;;;;;;;;;;;;;;;;5087765;28;19947;-48
2023/06/20 12:55:06;;;;;;;;;;;;;;;;;;5087284;28;19912;-48
2023/06/20 12:57:32;;;;;;;;;;;;;;;;;;5087908;28;20576;-51
2023/06/20 12:59:58;;;;;;;;;;;;;;;;;;5087302;28;19912;-48
2023/06/20 13:02:24;;;;;;;;;;;;;;;;;;5087591;28;19908;-51
2023/06/20 13:04:52;;;;;;;;;;;;;;;;;;5087518;28;20170;-50
2023/06/20 13:07:18;;;;;;;;;;;;;;;;;;5087766;28;19912;-48
2023/06/20 13:09:45;;;;;;;;;;;;;;;;;;5087362;28;20388;-47
2023/06/20 13:12:11;;;;;;;;;;;;;;;;;;5087403;28;19962;-48
2023/06/20 13:14:37;;;;;;;;;;;;;;;;;;5093350;28;19998;-50
2023/06/20 13:17:03;;;;;;;;;;;;;;;;;;5094062;28;20011;-49
2023/06/20 13:19:29;;;;;;;;;;;;;;;;;;5094094;28;20384;-47
2023/06/20 13:21:55;;;;;;;;;;;;;;;;;;5093715;28;19908;-50
2023/06/20 13:24:21;;;;;;;;;;;;;;;;;;5093876;28;19945;-48
2023/06/20 13:26:47;;;;;;;;;;;;;;;;;;5094564;28;20342;-49
2023/06/20 13:29:13;;;;;;;;;;;;;;;;;;5093895;28;20027;-48
2023/06/20 13:31:40;;;;;;;;;;;;;;;;;;5093958;28;20038;-47
2023/06/20 13:34:06;;;;;;;;;;;;;;;;;;5094358;28;19920;-51
2023/06/20 13:36:32;;;;;;;;;;;;;;;;;;5094128;28;19909;-46
2023/06/20 13:38:58;;;;;;;;;;;;;;;;;;5093645;28;20321;-46
2023/06/20 13:41:24;;;;;;;;;;;;;;;;;;5093725;28;19919;-49
2023/06/20 13:43:50;;;;;;;;;;;;;;;;;;5093829;28;20396;-46
2023/06/20 13:46:18;;;;;;;;;;;;;;;;;;5094150;28;19920;-46
2023/06/20 13:48:44;;;;;;;;;;;;;;;;;;5094010;28;19919;-46
2023/06/20 13:51:10;;;;;;;;;;;;;;;;;;5093300;28;19916;-47
2023/06/20 13:53:36;;;;;;;;;;;;;;;;;;5093893;28;19912;-47
2023/06/20 13:56:02;;;;;;;;;;;;;;;;;;5093718;28;19977;-50
2023/06/20 13:58:28;;;;;;;;;;;;;;;;;;5093790;28;20007;-48
2023/06/20 14:00:53;;;;;;;;;;;;;;;;;;5093562;28;20019;-48
2023/06/20 14:03:19;;;;;;;;;;;;;;;;;;5093757;28;19915;-47
2023/06/20 14:05:45;;;;;;;;;;;;;;;;;;5093884;28;20439;-50
2023/06/20 14:08:11;;;;;;;;;;;;;;;;;;5093710;28;19912;-50
2023/06/20 14:10:37;;;;;;;;;;;;;;;;;;5093395;28;19908;-48
2023/06/20 14:13:04;;;;;;;;;;;;;;;;;;5093338;28;19923;-47
2023/06/20 14:15:30;;;;;;;;;;;;;;;;;;5093537;28;20338;-50
2023/06/20 14:17:58;;;;;;;;;;;;;;;;;;5093626;28;19913;-48
2023/06/20 14:20:23;;;;;;;;;;;;;;;;;;5093302;28;20411;-50
2023/06/20 14:22:50;;;;;;;;;;;;;;;;;;5093713;28;19908;-50
2023/06/20 14:25:16;;;;;;;;;;;;;;;;;;5090997;28;19912;-48
2023/06/20 14:27:42;;;;;;;;;;;;;;;;;;5090214;28;19961;-48
2023/06/20 14:30:09;;;;;;;;;;;;;;;;;;5089964;28;19919;-50
2023/06/20 14:32:35;;;;;;;;;;;;;;;;;;5090280;28;20134;-48
2023/06/20 14:35:01;;;;;;;;;;;;;;;;;;5090240;28;19912;-47
2023/06/20 14:37:28;;;;;;;;;;;;;;;;;;5090090;28;19912;-47
2023/06/20 14:39:56;;;;;;;;;;;;;;;;;;5089898;28;19909;-47
2023/06/20 14:42:22;;;;;;;;;;;;;;;;;;5090103;28;19912;-47
2023/06/20 14:44:48;;;;;;;;;;;;;;;;;;5090266;28;20380;-46
2023/06/20 14:47:14;;;;;;;;;;;;;;;;;;5089957;28;20218;-49
2023/06/20 14:49:40;;;;;;;;;;;;;;;;;;5089660;28;20351;-48
2023/06/20 14:52:06;;;;;;;;;;;;;;;;;;5089966;28;19916;-47
2023/06/20 14:54:32;;;;;;;;;;;;;;;;;;5089601;28;19908;-47
2023/06/20 14:56:58;;;;;;;;;;;;;;;;;;5088354;28;19912;-46
2023/06/20 14:59:25;;;;;;;;;;;;;;;;;;5089347;28;20010;-48
2023/06/20 15:01:51;;;;;;;;;;;;;;;;;;5089647;28;19989;-48
2023/06/20 15:04:17;;;;;;;;;;;;;;;;;;5088205;28;19908;-49
2023/06/20 15:06:44;;;;;;;;;;;;;;;;;;5089575;28;19952;-46
2023/06/20 15:09:10;;;;;;;;;;;;;;;;;;5089413;28;20369;-46
2023/06/20 15:11:35;;;;;;;;;;;;;;;;;;5089735;28;19916;-49
2023/06/20 15:14:01;;;;;;;;;;;;;;;;;;5089337;28;20056;-46
2023/06/20 15:16:27;;;;;;;;;;;;;;;;;;5089606;28;19919;-48
2023/06/20 15:18:53;;;;;;;;;;;;;;;;;;5089451;28;19909;-48
2023/06/20 15:21:19;;;;;;;;;;;;;;;;;;5089260;28;19999;-46
2023/06/20 15:23:45;;;;;;;;;;;;;;;;;;5089217;28;19908;-49
2023/06/20 15:26:12;;;;;;;;;;;;;;;;;;5089226;28;20392;-48
2023/06/20 15:28:38;;;;;;;;;;;;;;;;;;5089167;28;20316;-48
2023/06/20 15:31:04;;;;;;;;;;;;;;;;;;5088961;28;19916;-47
2023/06/20 15:33:30;;;;;;;;;;;;;;;;;;5088928;28;19908;-48
2023/06/20 15:35:56;;;;;;;;;;;;;;;;;;5088498;28;19914;-46
2023/06/20 15:38:23;;;;;;;;;;;;;;;;;;5088086;28;20399;-46
2023/06/20 15:40:50;;;;;;;;;;;;;;;;;;5088912;28;20016;-46
2023/06/20 15:43:17;;;;;;;;;;;;;;;;;;5089067;28;20304;-49
2023/06/20 15:45:43;;;;;;;;;;;;;;;;;;5088864;28;19909;-49
2023/06/20 15:48:10;;;;;;;;;;;;;;;;;;5088660;28;19918;-47
2023/06/20 15:50:36;;;;;;;;;;;;;;;;;;5088123;28;19916;-51
2023/06/20 15:53:02;;;;;;;;;;;;;;;;;;5087425;28;19927;-47
2023/06/20 15:55:28;;;;;;;;;;;;;;;;;;5087988;28;20412;-48
2023/06/20 15:57:55;;;;;;;;;;;;;;;;;;5088189;28;20329;-47
2023/06/20 16:00:22;;;;;;;;;;;;;;;;;;5088524;28;19918;-48
2023/06/20 16:02:48;;;;;;;;;;;;;;;;;;5088494;28;19943;-46
2023/06/20 16:05:14;;;;;;;;;;;;;;;;;;5087049;28;19993;-47
2023/06/20 16:07:40;;;;;;;;;;;;;;;;;;5088115;28;20515;-46
2023/06/20 16:10:06;;;;;;;;;;;;;;;;;;5087354;28;19919;-48
2023/06/20 16:12:31;;;;;;;;;;;;;;;;;;5087926;28;19919;-46
2023/06/20 16:14:57;;;;;;;;;;;;;;;;;;5088483;28;20014;-48
2023/06/20 16:17:23;;;;;;;;;;;;;;;;;;5089866;28;19908;-46
2023/06/20 16:19:49;;;;;;;;;;;;;;;;;;5089327;28;19919;-50
2023/06/20 16:22:15;;;;;;;;;;;;;;;;;;5088520;28;20002;-47
2023/06/20 16:24:41;;;;;;;;;;;;;;;;;;5088148;28;19913;-47
2023/06/20 16:27:08;;;;;;;;;;;;;;;;;;5087923;28;19912;-47
2023/06/20 16:29:34;;;;;;;;;;;;;;;;;;5088271;28;19942;-48
2023/06/20 16:31:59;;;;;;;;;;;;;;;;;;5087682;28;19912;-49
2023/06/20 16:34:25;;;;;;;;;;;;;;;;;;5087980;28;19951;-50
2023/06/20 16:36:51;;;;;;;;;;;;;;;;;;5087844;28;19919;-46
2023/06/20 16:39:17;;;;;;;;;;;;;;;;;;5088318;28;19934;-47
2023/06/20 16:41:43;;;;;;;;;;;;;;;;;;5087782;28;19919;-46
2023/06/20 16:44:10;;;;;;;;;;;;;;;;;;5087852;28;19916;-49
2023/06/20 16:46:37;;;;;;;;;;;;;;;;;;5087786;28;19954;-47
2023/06/20 16:49:03;;;;;;;;;;;;;;;;;;5087226;28;20356;-48
2023/06/20 16:51:29;;;;;;;;;;;;;;;;;;5087551;28;19920;-49
2023/06/20 16:53:54;;;;;;;;;;;;;;;;;;5087953;28;19970;-47
2023/06/20 16:56:20;;;;;;;;;;;;;;;;;;5087742;28;20392;-49
2023/06/20 16:58:46;;;;;;;;;;;;;;;;;;5088309;28;19912;-47
2023/06/20 17:01:12;;;;;;;;;;;;;;;;;;5087188;28;20411;-48
2023/06/20 17:03:38;;;;;;;;;;;;;;;;;;5087598;28;19912;-49
2023/06/20 17:06:04;;;;;;;;;;;;;;;;;;5087473;28;19908;-48
2023/06/20 17:08:30;;;;;;;;;;;;;;;;;;5087356;28;19935;-49
2023/06/20 17:10:56;;;;;;;;;;;;;;;;;;5087258;28;19951;-48
2023/06/20 17:13:22;;;;;;;;;;;;;;;;;;5087503;28;19963;-51
2023/06/20 17:15:48;;;;;;;;;;;;;;;;;;5087746;28;20445;-48
2023/06/20 17:18:15;;;;;;;;;;;;;;;;;;5087554;28;19953;-49
2023/06/20 17:20:41;;;;;;;;;;;;;;;;;;5087347;28;20372;-47
2023/06/20 17:23:06;;;;;;;;;;;;;;;;;;5086935;28;19916;-51
2023/06/20 17:25:32;;;;;;;;;;;;;;;;;;5087403;28;19912;-48
2023/06/20 17:27:58;;;;;;;;;;;;;;;;;;5087084;28;19939;-49
2023/06/20 17:30:25;;;;;;;;;;;;;;;;;;5087217;28;19997;-47
2023/06/20 17:32:51;;;;;;;;;;;;;;;;;;5087226;28;19935;-48
2023/06/20 17:35:18;;;;;;;;;;;;;;;;;;5087572;28;20090;-48
2023/06/20 17:37:44;;;;;;;;;;;;;;;;;;5087236;28;20453;-50
2023/06/20 17:40:10;;;;;;;;;;;;;;;;;;5087040;28;19952;-48
2023/06/20 17:42:36;;;;;;;;;;;;;;;;;;5087125;28;19934;-48
2023/06/20 17:45:03;;;;;;;;;;;;;;;;;;5087208;28;20442;-46
2023/06/20 17:47:29;;;;;;;;;;;;;;;;;;5086970;28;19908;-48
2023/06/20 17:49:55;;;;;;;;;;;;;;;;;;5087064;28;20011;-49
2023/06/20 17:52:21;;;;;;;;;;;;;;;;;;5086628;28;19935;-46
2023/06/20 17:54:47;;;;;;;;;;;;;;;;;;5087509;28;19916;-48
2023/06/20 17:57:13;;;;;;;;;;;;;;;;;;5086732;28;19908;-48
2023/06/20 17:59:40;;;;;;;;;;;;;;;;;;5087060;28;19916;-46
2023/06/20 18:02:06;;;;;;;;;;;;;;;;;;5090968;28;19951;-47
2023/06/20 18:04:32;;;;;;;;;;;;;;;;;;5088514;28;19990;-47
2023/06/20 18:06:58;;;;;;;;;;;;;;;;;;5087287;28;20041;-50
2023/06/20 18:09:24;;;;;;;;;;;;;;;;;;5090099;28;19957;-46
2023/06/20 18:11:52;;;;;;;;;;;;;;;;;;5092094;28;19915;-47
2023/06/20 18:14:18;;;;;;;;;;;;;;;;;;5092062;28;19924;-48
2023/06/20 18:16:44;;;;;;;;;;;;;;;;;;5109787;28;19908;-49
2023/06/20 18:19:11;;;;;;;;;;;;;;;;;;5106976;28;19916;-50
2023/06/20 18:21:37;;;;;;;;;;;;;;;;;;5089705;28;19916;-47
2023/06/20 18:24:03;;;;;;;;;;;;;;;;;;5091304;28;20642;-52
2023/06/20 18:26:29;;;;;;;;;;;;;;;;;;5090750;28;19974;-48
2023/06/20 18:28:55;;;;;;;;;;;;;;;;;;5089210;28;19912;-50
2023/06/20 18:31:20;;;;;;;;;;;;;;;;;;5089786;28;19923;-47
2023/06/20 18:33:46;;;;;;;;;;;;;;;;;;5089554;28;19980;-48
2023/06/20 18:36:12;;;;;;;;;;;;;;;;;;5090475;28;19919;-49
2023/06/20 18:38:40;;;;;;;;;;;;;;;;;;5089530;28;19943;-46
2023/06/20 18:41:06;;;;;;;;;;;;;;;;;;5089504;28;20192;-50
2023/06/20 18:43:32;;;;;;;;;;;;;;;;;;5090249;28;19915;-47
2023/06/20 18:45:58;;;;;;;;;;;;;;;;;;5087208;28;19920;-50
2023/06/20 18:48:24;;;;;;;;;;;;;;;;;;5088819;28;19912;-49
2023/06/20 18:50:53;;;;;;;;;;;;;;;;;;5088150;28;20505;-48
2023/06/20 18:53:19;;;;;;;;;;;;;;;;;;5086882;28;19966;-46
2023/06/20 18:55:45;;;;;;;;;;;;;;;;;;5088768;28;20812;-48
2023/06/20 18:58:11;;;;;;;;;;;;;;;;;;5089559;28;19931;-47
2023/06/20 19:00:37;;;;;;;;;;;;;;;;;;5089225;28;19919;-47
2023/06/20 19:03:10;;;;;;;;;;;;;;;;;;5088186;28;20004;-48
2023/06/20 19:05:36;;;;;;;;;;;;;;;;;;5086022;28;19970;-46
2023/06/20 19:08:02;;;;;;;;;;;;;;;;;;5088404;28;20383;-51
2023/06/20 19:10:28;;;;;;;;;;;;;;;;;;5084928;28;19923;-47
2023/06/20 19:12:53;;;;;;;;;;;;;;;;;;5083709;28;20471;-48
2023/06/20 19:15:19;;;;;;;;;;;;;;;;;;5085521;28;19927;-46
2023/06/20 19:17:45;;;;;;;;;;;;;;;;;;5086088;28;20451;-46
2023/06/20 19:20:11;;;;;;;;;;;;;;;;;;5084518;28;19919;-48
2023/06/20 19:22:37;;;;;;;;;;;;;;;;;;5085583;28;19969;-47
2023/06/20 19:25:03;;;;;;;;;;;;;;;;;;5083977;28;19916;-47
2023/06/20 19:27:30;;;;;;;;;;;;;;;;;;5082433;28;19912;-47
2023/06/20 19:29:56;;;;;;;;;;;;;;;;;;5085846;28;19962;-49
2023/06/20 19:32:22;;;;;;;;;;;;;;;;;;5075268;28;20567;-49
2023/06/20 19:34:49;;;;;;;;;;;;;;;;;;5083523;28;19916;-49
2023/06/20 19:37:15;;;;;;;;;;;;;;;;;;5076879;28;20198;-47
2023/06/20 19:39:42;;;;;;;;;;;;;;;;;;5086847;28;20002;-48
2023/06/20 19:42:07;;;;;;;;;;;;;;;;;;5083766;28;19918;-49
2023/06/20 19:44:33;;;;;;;;;;;;;;;;;;5082342;28;19916;-47
2023/06/20 19:46:59;;;;;;;;;;;;;;;;;;5083320;28;19909;-51
2023/06/20 19:49:26;;;;;;;;;;;;;;;;;;5085996;28;19974;-49
2023/06/20 19:51:52;;;;;;;;;;;;;;;;;;5085504;28;19920;-48
2023/06/20 19:54:18;;;;;;;;;;;;;;;;;;5082285;28;19920;-48
2023/06/20 19:56:45;;;;;;;;;;;;;;;;;;5081381;28;19923;-51
2023/06/20 19:59:11;;;;;;;;;;;;;;;;;;5082286;28;19912;-49
2023/06/20 20:01:36;;;;;;;;;;;;;;;;;;5084199;28;20450;-46
2023/06/20 20:04:05;;;;;;;;;;;;;;;;;;5085478;28;20487;-51
2023/06/20 20:06:30;;;;;;;;;;;;;;;;;;5086146;28;19966;-47
2023/06/20 20:08:57;;;;;;;;;;;;;;;;;;5087200;28;19908;-48
2023/06/20 20:11:23;;;;;;;;;;;;;;;;;;5084514;28;19982;-48
2023/06/20 20:13:50;;;;;;;;;;;;;;;;;;5084915;28;19920;-46
2023/06/20 20:16:16;;;;;;;;;;;;;;;;;;5083924;28;19965;-49
2023/06/20 20:18:42;;;;;;;;;;;;;;;;;;5085814;28;19951;-50
2023/06/20 20:21:09;;;;;;;;;;;;;;;;;;5083262;28;19913;-48
2023/06/20 20:23:35;;;;;;;;;;;;;;;;;;5085089;28;19913;-49
2023/06/20 20:26:00;;;;;;;;;;;;;;;;;;5084380;28;19918;-48
2023/06/20 20:28:26;;;;;;;;;;;;;;;;;;5086692;28;19908;-48
2023/06/20 20:30:52;;;;;;;;;;;;;;;;;;5083778;28;19915;-49
2023/06/20 20:33:19;;;;;;;;;;;;;;;;;;5084182;28;19974;-48
2023/06/20 20:35:45;;;;;;;;;;;;;;;;;;5074526;28;20588;-49
2023/06/20 20:38:12;;;;;;;;;;;;;;;;;;5079223;28;19933;-50
2023/06/20 20:40:38;;;;;;;;;;;;;;;;;;5083622;28;19916;-48
2023/06/20 20:43:04;;;;;;;;;;;;;;;;;;5069601;28;19916;-47
2023/06/20 20:45:31;;;;;;;;;;;;;;;;;;5082096;28;20531;-46
2023/06/20 20:47:57;;;;;;;;;;;;;;;;;;5082708;28;19912;-49
2023/06/20 20:50:23;;;;;;;;;;;;;;;;;;5084473;28;20527;-47
2023/06/20 20:52:49;;;;;;;;;;;;;;;;;;5082552;28;19921;-47
2023/06/20 20:55:15;;;;;;;;;;;;;;;;;;5083769;28;20385;-47
2023/06/20 20:57:42;;;;;;;;;;;;;;;;;;5084976;28;19919;-48
2023/06/20 21:00:08;;;;;;;;;;;;;;;;;;5083418;28;20010;-48
2023/06/20 21:02:34;;;;;;;;;;;;;;;;;;5085443;28;19916;-47
2023/06/20 21:05:00;;;;;;;;;;;;;;;;;;5084155;28;19919;-49
2023/06/20 21:07:26;;;;;;;;;;;;;;;;;;5082112;28;19916;-47
2023/06/20 21:09:53;;;;;;;;;;;;;;;;;;5086101;28;20128;-48
2023/06/20 21:12:19;;;;;;;;;;;;;;;;;;5081774;28;19919;-46
2023/06/20 21:14:45;;;;;;;;;;;;;;;;;;5084990;28;19923;-47
2023/06/20 21:17:12;;;;;;;;;;;;;;;;;;5082310;28;19959;-47
2023/06/20 21:19:38;;;;;;;;;;;;;;;;;;5065724;28;19993;-49
2023/06/20 21:22:04;;;;;;;;;;;;;;;;;;5082493;28;19986;-46
2023/06/20 21:24:30;;;;;;;;;;;;;;;;;;5082732;28;19916;-51
2023/06/20 21:26:56;;;;;;;;;;;;;;;;;;5084932;28;19927;-50
2023/06/20 21:29:24;;;;;;;;;;;;;;;;;;5083647;28;19916;-47
2023/06/20 21:31:50;;;;;;;;;;;;;;;;;;5084483;28;19916;-48
2023/06/20 21:34:16;;;;;;;;;;;;;;;;;;5084864;28;20308;-51
2023/06/20 21:36:41;;;;;;;;;;;;;;;;;;5089531;28;20011;-49
2023/06/20 21:39:07;;;;;;;;;;;;;;;;;;5090141;28;19912;-52
2023/06/20 21:41:33;;;;;;;;;;;;;;;;;;5088309;28;19915;-48
2023/06/20 21:44:00;;;;;;;;;;;;;;;;;;5090075;28;20235;-51
2023/06/20 21:46:26;;;;;;;;;;;;;;;;;;5089946;28;19919;-50
2023/06/20 21:48:52;;;;;;;;;;;;;;;;;;5089767;28;20377;-48